Airfield :
LOGIN :

Register | Disclaimer

   EN    FR    IT 

 










Legend :    VFR   Marginal VFR   IFR   Intensive IFR   Very Intensive IFR
Visi :
Ceiling :
>= 8 km
>= 3000ft
5 to 8 km
1000 to 3000 ft
1500m to 5 km
500 to 1000 ft
800 to 1500m
200 to 500 ft
< 800m
< 200 ft
Symbols :   Thunderstorms  Fog  Heavy snow  Heavy precipitations  Wind > 20 kt
SIGMETs :     Misc.  Thunderstorms  Icing  Turbulence  Mountain Waves  Volcanic Ashes






- Airport Elevation : 280 ft
- IATA code : FAE


EKVG - Vagar

CURRENT METAR :
  • 171420Z AUTO VRB01KT 9999 -RA BKN020/// 03/01 Q1013

EXPIRED METARs :
  • 171350Z AUTO 00000KT 9999 FEW140/// 01/M00 Q1013
  • 171320Z AUTO 33001KT 9999 NCD 02/M00 Q1013
  • 171250Z AUTO 35004KT 9999 NCD 02/00 Q1013
  • 171220Z AUTO 36004KT 320V040 9999 FEW008/// SCT031/// BKN060/// 02/00 Q1013
  • 171150Z AUTO 28013KT 260V350 9999 -RA BKN018/// 03/01 Q1012

TAF TAF EKVG
Valid from the 17 at 15:00 until the 17 at 21:00 UTC


171410Z 1715/1721 34007KT 9999 BKN020
TEMPO 1715/1721 4000 SHRASN BKN008 SCT020CB



MET'MAP, your aeronautical weather chart ! - Copyright ORBIFLY December 2007 - Disclaimer

ORBIFLY MET'MAP TEAM :

Programming & Development : Alexandra Zaïnal
Concept & Development : Baudouin d'Aumeries
Co-Development & Prog : Marc-Olivier Méhu
Technical & hardware support : Manuel Goepfert

Contact : metmap@orbifly.com




SOURCES & CREDITS :

   NOAA